Pelagos — SZSW — position and weather

sailwx.info

Track history (hours):
 
Tides and Currents Weather Stations Pressure Air Temp Water Temp Dewpoint Dewpoint Depression Visibility Wind Speed Wind Dir Waves Ship Positions

Pelagos

Last reported at 2016-May-24 14:23 UTC. Time now 2016-May-24 17:41 UTC.
Position N 57°29' E 010°41'.

Length 249 m; draft 13 m.

Type: Ship. MMSI: 240335000.

Date/timePositionNaut miles runAvg speedWind from/ knotsBaromVisibWave heightAir tempDewpointWater temp
2016-May-24 14:23N 57°29' E 010°41'0 0.0
2016-May-24 10:14N 57°29' E 010°41'0 0.0
2016-May-24 08:08N 57°29' E 010°41'10 2.7
2016-May-24 04:33N 57°30' E 010°59'1313.0
2016-May-24 03:33N 57°29' E 011°23'1313.0
2016-May-24 02:33N 57°18' E 011°32'1313.2
2016-May-24 01:33N 57°05' E 011°41'1312.8
2016-May-24 00:33N 56°53' E 011°49'1212.0
2016-May-23 23:33N 56°41' E 011°51'1313.3
2016-May-23 22:33N 56°30' E 011°38'1313.1
2016-May-23 21:33N 56°19' E 011°25'1312.8
2016-May-23 20:33N 56°08' E 011°13'1812.9
2016-May-23 19:10N 55°54' E 010°53'2512.2
2016-May-23 17:07N 55°29' E 010°54'713.2
2016-May-23 16:33N 55°23' E 011°02'1111.3
2016-May-23 15:33N 55°12' E 011°06'1111.5
2016-May-23 14:33N 55°01' E 010°59'1212.1
2016-May-23 13:33N 54°50' E 010°50'1111.1
2016-May-23 12:33N 54°39' E 010°52'1212.5
2016-May-23 11:33N 54°35' E 011°12'1413.6
2016-May-23 10:33N 54°30' E 011°34'1313.5
2016-May-23 09:33N 54°27' E 011°56'1110.9
2016-May-23 08:33N 54°31' E 012°13'1010.4
2016-May-23 07:33N 54°39' E 012°25'1511.3
2016-May-23 06:16N 54°47' E 012°46'912.2
2016-May-23 05:31N 54°51' E 013°00'1212.3
2016-May-23 04:33N 54°55' E 013°20'1212.5
2016-May-23 03:34N 54°59' E 013°40'1312.5
2016-May-23 02:34N 55°03' E 014°00'1212.3
2016-May-23 01:33N 55°12' E 014°16'1312.5
2016-May-23 00:33N 55°22' E 014°29'1212.1
2016-May-22 23:33N 55°29' E 014°46'1312.6
2016-May-22 22:33N 55°35' E 015°06'1212.3
2016-May-22 21:34N 55°39' E 015°26'1212.4
2016-May-22 20:33N 55°41' E 015°48'9012.3
2016-May-22 13:17N 55°47' E 018°27'912.7
2016-May-22 12:33N 55°47' E 018°44'1312.6
2016-May-22 11:33N 55°46' E 019°06'1312.4
2016-May-22 10:31N 55°46' E 019°29'  
2016-May-18 23:10N 55°46' E 019°35'5 8.9
2016-May-18 22:33N 55°46' E 019°25'9 8.8
2016-May-18 21:33N 55°47' E 019°10'9 8.9
2016-May-18 20:33N 55°47' E 018°54'9 8.9
2016-May-18 19:32N 55°47' E 018°38'11 9.0
2016-May-18 18:19N 55°48' E 018°18'5 6.9
2016-May-18 17:32N 55°48' E 018°09'7 6.2
2016-May-18 16:29N 55°48' E 017°57'7 6.4
2016-May-18 15:22N 55°48' E 017°44'12 6.4
2016-May-18 13:33N 55°49' E 017°24'57 7.0
2016-May-18 05:23N 55°38' E 015°44'8 8.8
2016-May-18 04:32N 55°36' E 015°31'9 8.8
2016-May-18 03:33N 55°33' E 015°17'9 9.0
2016-May-18 02:33N 55°30' E 015°02'9 9.0
2016-May-18 01:33N 55°26' E 014°48'9 8.7
2016-May-18 00:33N 55°21' E 014°35'9 8.7
2016-May-17 23:33N 55°14' E 014°26'8 7.7
2016-May-17 22:33N 55°10' E 014°14'8 8.1
2016-May-17 21:33N 55°10' E 013°60'8 8.1
2016-May-17 20:33N 55°11' E 013°46'8 8.3
2016-May-17 19:33N 55°12' E 013°31'9 8.9
2016-May-17 18:33N 55°13' E 013°16'9 9.0
2016-May-17 17:33N 55°14' E 013°00'9 8.9
2016-May-17 16:33N 55°16' E 012°45'7 6.9
2016-May-17 15:33N 55°22' E 012°39'8 7.8
2016-May-17 14:33N 55°30' E 012°41'9 9.2
2016-May-17 13:33N 55°36' E 012°52'1111.0
2016-May-17 12:34N 55°47' E 012°48'1514.8
2016-May-17 11:34N 56°01' E 012°40'1111.4
2016-May-17 10:33N 56°09' E 012°26'8 8.2
2016-May-17 09:33N 56°14' E 012°13'4 4.3
2016-May-17 08:33N 56°16' E 012°07'13 6.7
2016-May-17 06:33N 56°29' E 011°59'9 8.7
2016-May-17 05:30N 56°38' E 011°55'8 8.8
2016-May-17 04:33N 56°46' E 011°52'8 8.5
2016-May-17 03:33N 56°54' E 011°46'9 8.7
2016-May-17 02:33N 57°02' E 011°41'9 8.6
2016-May-17 01:33N 57°10' E 011°35'8 8.3
2016-May-17 00:33N 57°18' E 011°30'8 8.4
2016-May-16 23:33N 57°26' E 011°25'8 8.2
2016-May-16 22:33N 57°32' E 011°15'8 8.0
2016-May-16 21:33N 57°38' E 011°04'8 8.1
2016-May-16 20:33N 57°43' E 010°53'8 7.7
2016-May-16 19:33N 57°47' E 010°41'8 7.9
2016-May-16 18:33N 57°45' E 010°26'8 7.9
2016-May-16 17:33N 57°43' E 010°12'8 8.1
2016-May-16 16:33N 57°41' E 009°57'8 8.0
2016-May-16 15:33N 57°38' E 009°44'9 8.6
2016-May-16 14:33N 57°33' E 009°30'9 8.7
2016-May-16 13:33N 57°29' E 009°15'9 8.6
2016-May-16 12:31N 57°25' E 009°01'  
Track history (hours):
 
Tides and Currents Weather Stations Pressure Air Temp Water Temp Dewpoint Dewpoint Depression Visibility Wind Speed Wind Dir Waves Ship Positions

Pelagos

Last reported at 2016-May-24 14:23 UTC. Time now 2016-May-24 17:41 UTC.
Position N 57°29' E 010°41'.

Length 249 m; draft 13 m.

Type: Ship. MMSI: 240335000.

Date/timePositionNaut miles runAvg speedWind from/ knotsBaromVisibWave heightAir tempDewpointWater temp
2016-May-24 14:23N 57°29' E 010°41'0 0.0
2016-May-24 10:14N 57°29' E 010°41'0 0.0
2016-May-24 08:08N 57°29' E 010°41'10 2.7
2016-May-24 04:33N 57°30' E 010°59'1313.0
2016-May-24 03:33N 57°29' E 011°23'1313.0
2016-May-24 02:33N 57°18' E 011°32'1313.2
2016-May-24 01:33N 57°05' E 011°41'1312.8
2016-May-24 00:33N 56°53' E 011°49'1212.0
2016-May-23 23:33N 56°41' E 011°51'1313.3
2016-May-23 22:33N 56°30' E 011°38'1313.1
2016-May-23 21:33N 56°19' E 011°25'1312.8
2016-May-23 20:33N 56°08' E 011°13'1812.9
2016-May-23 19:10N 55°54' E 010°53'2512.2
2016-May-23 17:07N 55°29' E 010°54'713.2
2016-May-23 16:33N 55°23' E 011°02'1111.3
2016-May-23 15:33N 55°12' E 011°06'1111.5
2016-May-23 14:33N 55°01' E 010°59'1212.1
2016-May-23 13:33N 54°50' E 010°50'1111.1
2016-May-23 12:33N 54°39' E 010°52'1212.5
2016-May-23 11:33N 54°35' E 011°12'1413.6
2016-May-23 10:33N 54°30' E 011°34'1313.5
2016-May-23 09:33N 54°27' E 011°56'1110.9
2016-May-23 08:33N 54°31' E 012°13'1010.4
2016-May-23 07:33N 54°39' E 012°25'1511.3
2016-May-23 06:16N 54°47' E 012°46'912.2
2016-May-23 05:31N 54°51' E 013°00'1212.3
2016-May-23 04:33N 54°55' E 013°20'1212.5
2016-May-23 03:34N 54°59' E 013°40'1312.5
2016-May-23 02:34N 55°03' E 014°00'1212.3
2016-May-23 01:33N 55°12' E 014°16'1312.5
2016-May-23 00:33N 55°22' E 014°29'1212.1
2016-May-22 23:33N 55°29' E 014°46'1312.6
2016-May-22 22:33N 55°35' E 015°06'1212.3
2016-May-22 21:34N 55°39' E 015°26'1212.4
2016-May-22 20:33N 55°41' E 015°48'9012.3
2016-May-22 13:17N 55°47' E 018°27'912.7
2016-May-22 12:33N 55°47' E 018°44'1312.6
2016-May-22 11:33N 55°46' E 019°06'1312.4
2016-May-22 10:31N 55°46' E 019°29'  
2016-May-18 23:10N 55°46' E 019°35'5 8.9
2016-May-18 22:33N 55°46' E 019°25'9 8.8
2016-May-18 21:33N 55°47' E 019°10'9 8.9
2016-May-18 20:33N 55°47' E 018°54'9 8.9
2016-May-18 19:32N 55°47' E 018°38'11 9.0
2016-May-18 18:19N 55°48' E 018°18'5 6.9
2016-May-18 17:32N 55°48' E 018°09'7 6.2
2016-May-18 16:29N 55°48' E 017°57'7 6.4
2016-May-18 15:22N 55°48' E 017°44'12 6.4
2016-May-18 13:33N 55°49' E 017°24'57 7.0
2016-May-18 05:23N 55°38' E 015°44'8 8.8
2016-May-18 04:32N 55°36' E 015°31'9 8.8
2016-May-18 03:33N 55°33' E 015°17'9 9.0
2016-May-18 02:33N 55°30' E 015°02'9 9.0
2016-May-18 01:33N 55°26' E 014°48'9 8.7
2016-May-18 00:33N 55°21' E 014°35'9 8.7
2016-May-17 23:33N 55°14' E 014°26'8 7.7
2016-May-17 22:33N 55°10' E 014°14'8 8.1
2016-May-17 21:33N 55°10' E 013°60'8 8.1
2016-May-17 20:33N 55°11' E 013°46'8 8.3
2016-May-17 19:33N 55°12' E 013°31'9 8.9
2016-May-17 18:33N 55°13' E 013°16'9 9.0
2016-May-17 17:33N 55°14' E 013°00'9 8.9
2016-May-17 16:33N 55°16' E 012°45'7 6.9
2016-May-17 15:33N 55°22' E 012°39'8 7.8
2016-May-17 14:33N 55°30' E 012°41'9 9.2
2016-May-17 13:33N 55°36' E 012°52'1111.0
2016-May-17 12:34N 55°47' E 012°48'1514.8
2016-May-17 11:34N 56°01' E 012°40'1111.4
2016-May-17 10:33N 56°09' E 012°26'8 8.2
2016-May-17 09:33N 56°14' E 012°13'4 4.3
2016-May-17 08:33N 56°16' E 012°07'13 6.7
2016-May-17 06:33N 56°29' E 011°59'9 8.7
2016-May-17 05:30N 56°38' E 011°55'8 8.8
2016-May-17 04:33N 56°46' E 011°52'8 8.5
2016-May-17 03:33N 56°54' E 011°46'9 8.7
2016-May-17 02:33N 57°02' E 011°41'9 8.6
2016-May-17 01:33N 57°10' E 011°35'8 8.3
2016-May-17 00:33N 57°18' E 011°30'8 8.4
2016-May-16 23:33N 57°26' E 011°25'8 8.2
2016-May-16 22:33N 57°32' E 011°15'8 8.0
2016-May-16 21:33N 57°38' E 011°04'8 8.1
2016-May-16 20:33N 57°43' E 010°53'8 7.7
2016-May-16 19:33N 57°47' E 010°41'8 7.9
2016-May-16 18:33N 57°45' E 010°26'8 7.9
2016-May-16 17:33N 57°43' E 010°12'8 8.1
2016-May-16 16:33N 57°41' E 009°57'8 8.0
2016-May-16 15:33N 57°38' E 009°44'9 8.6
2016-May-16 14:33N 57°33' E 009°30'9 8.7
2016-May-16 13:33N 57°29' E 009°15'9 8.6
2016-May-16 12:31N 57°25' E 009°01'  

Dump ship's entire track history